sensor_id;sensor_type;location;lat;lon;timestamp;P1;durP1;ratioP1;P2;durP2;ratioP2
10643;SDS011;5370;50.132;8.626;2023-09-19T00:01:07;2.17;;;1.60;;
10643;SDS011;5370;50.132;8.626;2023-09-19T00:03:33;3.55;;;1.63;;
10643;SDS011;5370;50.132;8.626;2023-09-19T00:06:02;4.95;;;1.88;;
10643;SDS011;5370;50.132;8.626;2023-09-19T00:08:28;2.25;;;1.40;;
10643;SDS011;5370;50.132;8.626;2023-09-19T00:10:54;2.35;;;1.73;;
10643;SDS011;5370;50.132;8.626;2023-09-19T00:13:19;4.78;;;1.38;;
10643;SDS011;5370;50.132;8.626;2023-09-19T00:15:46;4.53;;;1.83;;
10643;SDS011;5370;50.132;8.626;2023-09-19T00:18:16;2.42;;;1.80;;
10643;SDS011;5370;50.132;8.626;2023-09-19T00:20:46;3.80;;;1.40;;
10643;SDS011;5370;50.132;8.626;2023-09-19T00:23:12;3.50;;;1.77;;
10643;SDS011;5370;50.132;8.626;2023-09-19T00:25:38;3.42;;;1.88;;
10643;SDS011;5370;50.132;8.626;2023-09-19T00:28:05;3.95;;;1.40;;
10643;SDS011;5370;50.132;8.626;2023-09-19T00:30:32;3.90;;;1.85;;
10643;SDS011;5370;50.132;8.626;2023-09-19T00:33:01;1.60;;;1.45;;
10643;SDS011;5370;50.132;8.626;2023-09-19T00:35:30;2.78;;;1.58;;
10643;SDS011;5370;50.132;8.626;2023-09-19T00:37:57;2.25;;;1.92;;
10643;SDS011;5370;50.132;8.626;2023-09-19T00:40:22;4.95;;;1.58;;
10643;SDS011;5370;50.132;8.626;2023-09-19T00:42:49;5.18;;;1.45;;
10643;SDS011;5370;50.132;8.626;2023-09-19T00:45:15;5.15;;;1.90;;
10643;SDS011;5370;50.132;8.626;2023-09-19T00:47:43;3.20;;;1.80;;
10643;SDS011;5370;50.132;8.626;2023-09-19T00:50:14;5.05;;;1.65;;
10643;SDS011;5370;50.132;8.626;2023-09-19T00:52:42;4.85;;;1.55;;
10643;SDS011;5370;50.132;8.626;2023-09-19T00:55:09;4.20;;;1.90;;
10643;SDS011;5370;50.132;8.626;2023-09-19T00:57:36;5.50;;;2.05;;
10643;SDS011;5370;50.132;8.626;2023-09-19T01:00:03;3.22;;;2.00;;
10643;SDS011;5370;50.132;8.626;2023-09-19T01:02:31;4.78;;;1.52;;
10643;SDS011;5370;50.132;8.626;2023-09-19T01:04:57;4.15;;;1.50;;
10643;SDS011;5370;50.132;8.626;2023-09-19T01:07:24;4.57;;;1.63;;
10643;SDS011;5370;50.132;8.626;2023-09-19T01:09:49;2.30;;;1.60;;
10643;SDS011;5370;50.132;8.626;2023-09-19T01:12:17;4.85;;;1.55;;
10643;SDS011;5370;50.132;8.626;2023-09-19T01:14:54;3.90;;;2.03;;
10643;SDS011;5370;50.132;8.626;2023-09-19T01:20:41;1.98;;;1.77;;
10643;SDS011;5370;50.132;8.626;2023-09-19T01:26:05;2.92;;;1.60;;
10643;SDS011;5370;50.132;8.626;2023-09-19T01:28:51;2.63;;;1.48;;
10643;SDS011;5370;50.132;8.626;2023-09-19T01:31:44;2.28;;;1.90;;
10643;SDS011;5370;50.132;8.626;2023-09-19T01:34:10;5.45;;;2.20;;
10643;SDS011;5370;50.132;8.626;2023-09-19T01:36:36;4.10;;;2.45;;
10643;SDS011;5370;50.132;8.626;2023-09-19T01:39:07;3.40;;;1.63;;
10643;SDS011;5370;50.132;8.626;2023-09-19T01:41:38;4.20;;;2.17;;
10643;SDS011;5370;50.132;8.626;2023-09-19T01:44:13;4.57;;;2.13;;
10643;SDS011;5370;50.132;8.626;2023-09-19T01:46:54;2.90;;;2.08;;
10643;SDS011;5370;50.132;8.626;2023-09-19T01:52:26;5.25;;;2.17;;
10643;SDS011;5370;50.132;8.626;2023-09-19T01:55:00;6.05;;;2.20;;
10643;SDS011;5370;50.132;8.626;2023-09-19T01:58:16;5.43;;;2.00;;
10643;SDS011;5370;50.132;8.626;2023-09-19T02:00:34;4.20;;;1.80;;
10643;SDS011;5370;50.132;8.626;2023-09-19T02:03:02;3.42;;;2.13;;
10643;SDS011;5370;50.132;8.626;2023-09-19T02:05:29;3.05;;;1.88;;
10643;SDS011;5370;50.132;8.626;2023-09-19T02:07:55;5.45;;;2.20;;
10643;SDS011;5370;50.132;8.626;2023-09-19T02:10:21;3.70;;;2.00;;
10643;SDS011;5370;50.132;8.626;2023-09-19T02:12:48;5.07;;;2.03;;
10643;SDS011;5370;50.132;8.626;2023-09-19T02:15:14;9.15;;;2.42;;
10643;SDS011;5370;50.132;8.626;2023-09-19T02:17:41;4.07;;;2.03;;
10643;SDS011;5370;50.132;8.626;2023-09-19T02:20:08;4.93;;;1.88;;
10643;SDS011;5370;50.132;8.626;2023-09-19T02:22:35;5.50;;;3.28;;
10643;SDS011;5370;50.132;8.626;2023-09-19T02:25:01;23.95;;;17.35;;
10643;SDS011;5370;50.132;8.626;2023-09-19T02:27:26;48.20;;;32.67;;
10643;SDS011;5370;50.132;8.626;2023-09-19T02:29:52;118.57;;;85.07;;
10643;SDS011;5370;50.132;8.626;2023-09-19T02:32:17;55.65;;;41.60;;
10643;SDS011;5370;50.132;8.626;2023-09-19T02:34:43;44.65;;;34.35;;
10643;SDS011;5370;50.132;8.626;2023-09-19T02:37:09;12.43;;;8.32;;
10643;SDS011;5370;50.132;8.626;2023-09-19T02:39:35;8.15;;;5.38;;
10643;SDS011;5370;50.132;8.626;2023-09-19T02:42:01;7.93;;;5.15;;
10643;SDS011;5370;50.132;8.626;2023-09-19T02:44:29;9.73;;;5.45;;
10643;SDS011;5370;50.132;8.626;2023-09-19T02:46:54;8.15;;;5.50;;
10643;SDS011;5370;50.132;8.626;2023-09-19T02:49:22;5.15;;;3.03;;
10643;SDS011;5370;50.132;8.626;2023-09-19T02:51:48;8.85;;;6.18;;
10643;SDS011;5370;50.132;8.626;2023-09-19T02:54:14;4.50;;;4.00;;
10643;SDS011;5370;50.132;8.626;2023-09-19T02:56:40;3.65;;;2.47;;
10643;SDS011;5370;50.132;8.626;2023-09-19T02:59:06;3.92;;;3.10;;
10643;SDS011;5370;50.132;8.626;2023-09-19T03:01:32;3.53;;;2.70;;
10643;SDS011;5370;50.132;8.626;2023-09-19T03:03:59;4.68;;;2.50;;
10643;SDS011;5370;50.132;8.626;2023-09-19T03:06:24;7.82;;;3.00;;
10643;SDS011;5370;50.132;8.626;2023-09-19T03:08:50;4.55;;;2.60;;
10643;SDS011;5370;50.132;8.626;2023-09-19T03:11:16;2.80;;;2.22;;
10643;SDS011;5370;50.132;8.626;2023-09-19T03:13:46;3.83;;;2.90;;
10643;SDS011;5370;50.132;8.626;2023-09-19T03:16:16;3.08;;;2.40;;
10643;SDS011;5370;50.132;8.626;2023-09-19T03:18:41;3.80;;;2.95;;
10643;SDS011;5370;50.132;8.626;2023-09-19T03:21:07;3.97;;;2.88;;
10643;SDS011;5370;50.132;8.626;2023-09-19T03:23:32;3.00;;;2.20;;
10643;SDS011;5370;50.132;8.626;2023-09-19T03:25:58;4.13;;;2.28;;
10643;SDS011;5370;50.132;8.626;2023-09-19T03:28:24;6.93;;;2.28;;
10643;SDS011;5370;50.132;8.626;2023-09-19T03:31:02;6.32;;;2.40;;
10643;SDS011;5370;50.132;8.626;2023-09-19T03:33:29;3.83;;;2.47;;
10643;SDS011;5370;50.132;8.626;2023-09-19T03:35:57;3.33;;;2.53;;
10643;SDS011;5370;50.132;8.626;2023-09-19T03:38:24;4.18;;;2.55;;
10643;SDS011;5370;50.132;8.626;2023-09-19T03:40:50;5.00;;;2.70;;
10643;SDS011;5370;50.132;8.626;2023-09-19T03:43:15;3.70;;;2.60;;
10643;SDS011;5370;50.132;8.626;2023-09-19T03:45:41;3.58;;;2.60;;
10643;SDS011;5370;50.132;8.626;2023-09-19T03:48:10;4.80;;;2.10;;
10643;SDS011;5370;50.132;8.626;2023-09-19T03:50:36;5.63;;;2.38;;
10643;SDS011;5370;50.132;8.626;2023-09-19T03:53:02;6.03;;;2.50;;
10643;SDS011;5370;50.132;8.626;2023-09-19T03:55:28;6.47;;;2.80;;
10643;SDS011;5370;50.132;8.626;2023-09-19T03:57:55;3.90;;;2.70;;
10643;SDS011;5370;50.132;8.626;2023-09-19T04:00:21;5.88;;;2.90;;
10643;SDS011;5370;50.132;8.626;2023-09-19T04:02:51;3.65;;;2.38;;
10643;SDS011;5370;50.132;8.626;2023-09-19T04:05:17;4.00;;;2.40;;
10643;SDS011;5370;50.132;8.626;2023-09-19T04:07:43;5.35;;;2.40;;
10643;SDS011;5370;50.132;8.626;2023-09-19T04:10:09;5.50;;;2.40;;
10643;SDS011;5370;50.132;8.626;2023-09-19T04:12:36;7.60;;;2.70;;
10643;SDS011;5370;50.132;8.626;2023-09-19T04:15:03;5.10;;;2.28;;
10643;SDS011;5370;50.132;8.626;2023-09-19T04:17:30;3.65;;;2.00;;
10643;SDS011;5370;50.132;8.626;2023-09-19T04:19:57;3.63;;;2.10;;
10643;SDS011;5370;50.132;8.626;2023-09-19T04:22:23;7.68;;;1.95;;
10643;SDS011;5370;50.132;8.626;2023-09-19T04:24:49;2.80;;;2.00;;
10643;SDS011;5370;50.132;8.626;2023-09-19T04:27:14;4.38;;;2.17;;
10643;SDS011;5370;50.132;8.626;2023-09-19T04:29:40;4.10;;;1.90;;
10643;SDS011;5370;50.132;8.626;2023-09-19T04:32:06;3.25;;;2.40;;
10643;SDS011;5370;50.132;8.626;2023-09-19T04:34:32;3.10;;;1.60;;
10643;SDS011;5370;50.132;8.626;2023-09-19T04:36:59;2.95;;;1.70;;
10643;SDS011;5370;50.132;8.626;2023-09-19T04:39:25;4.60;;;2.00;;
10643;SDS011;5370;50.132;8.626;2023-09-19T04:41:52;3.15;;;1.70;;
10643;SDS011;5370;50.132;8.626;2023-09-19T04:44:18;2.90;;;1.85;;
10643;SDS011;5370;50.132;8.626;2023-09-19T04:46:43;2.78;;;2.05;;
10643;SDS011;5370;50.132;8.626;2023-09-19T04:49:11;3.78;;;1.95;;
10643;SDS011;5370;50.132;8.626;2023-09-19T04:51:37;3.47;;;2.05;;
10643;SDS011;5370;50.132;8.626;2023-09-19T04:54:03;4.22;;;1.90;;
10643;SDS011;5370;50.132;8.626;2023-09-19T04:56:28;3.58;;;2.05;;
10643;SDS011;5370;50.132;8.626;2023-09-19T04:58:54;2.33;;;1.80;;
10643;SDS011;5370;50.132;8.626;2023-09-19T05:01:20;5.63;;;2.60;;
10643;SDS011;5370;50.132;8.626;2023-09-19T05:03:48;3.83;;;2.05;;
10643;SDS011;5370;50.132;8.626;2023-09-19T05:06:17;6.35;;;2.33;;
10643;SDS011;5370;50.132;8.626;2023-09-19T05:08:45;3.50;;;2.05;;
10643;SDS011;5370;50.132;8.626;2023-09-19T05:11:11;3.90;;;2.42;;
10643;SDS011;5370;50.132;8.626;2023-09-19T05:13:37;4.32;;;2.45;;
10643;SDS011;5370;50.132;8.626;2023-09-19T05:16:02;8.57;;;2.30;;
10643;SDS011;5370;50.132;8.626;2023-09-19T05:18:28;22.05;;;3.85;;
10643;SDS011;5370;50.132;8.626;2023-09-19T05:20:54;4.85;;;2.45;;
10643;SDS011;5370;50.132;8.626;2023-09-19T05:23:21;3.25;;;2.13;;
10643;SDS011;5370;50.132;8.626;2023-09-19T05:25:46;12.27;;;3.45;;
10643;SDS011;5370;50.132;8.626;2023-09-19T05:28:12;13.77;;;3.13;;
10643;SDS011;5370;50.132;8.626;2023-09-19T05:30:40;6.93;;;2.33;;
10643;SDS011;5370;50.132;8.626;2023-09-19T05:33:07;5.25;;;2.25;;
10643;SDS011;5370;50.132;8.626;2023-09-19T05:35:33;3.17;;;1.85;;
10643;SDS011;5370;50.132;8.626;2023-09-19T05:37:59;4.20;;;2.22;;
10643;SDS011;5370;50.132;8.626;2023-09-19T05:40:25;5.47;;;2.42;;
10643;SDS011;5370;50.132;8.626;2023-09-19T05:42:52;4.18;;;2.92;;
10643;SDS011;5370;50.132;8.626;2023-09-19T05:45:17;4.10;;;2.45;;
10643;SDS011;5370;50.132;8.626;2023-09-19T05:47:49;5.15;;;2.60;;
10643;SDS011;5370;50.132;8.626;2023-09-19T05:50:16;3.20;;;2.30;;
10643;SDS011;5370;50.132;8.626;2023-09-19T05:52:43;4.88;;;2.45;;
10643;SDS011;5370;50.132;8.626;2023-09-19T05:55:17;6.00;;;2.53;;
10643;SDS011;5370;50.132;8.626;2023-09-19T05:57:42;5.00;;;2.35;;
10643;SDS011;5370;50.132;8.626;2023-09-19T06:00:08;5.85;;;2.65;;
10643;SDS011;5370;50.132;8.626;2023-09-19T06:02:36;4.82;;;2.30;;
10643;SDS011;5370;50.132;8.626;2023-09-19T06:05:02;4.65;;;2.10;;
10643;SDS011;5370;50.132;8.626;2023-09-19T06:07:31;4.05;;;2.22;;
10643;SDS011;5370;50.132;8.626;2023-09-19T06:10:01;2.90;;;2.30;;
10643;SDS011;5370;50.132;8.626;2023-09-19T06:12:30;6.90;;;2.20;;
10643;SDS011;5370;50.132;8.626;2023-09-19T06:14:58;4.43;;;2.13;;
10643;SDS011;5370;50.132;8.626;2023-09-19T06:17:24;6.78;;;2.25;;
10643;SDS011;5370;50.132;8.626;2023-09-19T06:19:49;4.43;;;2.60;;
10643;SDS011;5370;50.132;8.626;2023-09-19T06:22:16;3.38;;;2.00;;
10643;SDS011;5370;50.132;8.626;2023-09-19T06:24:44;3.78;;;1.67;;
10643;SDS011;5370;50.132;8.626;2023-09-19T06:27:11;5.63;;;1.90;;
10643;SDS011;5370;50.132;8.626;2023-09-19T06:29:38;2.80;;;1.80;;
10643;SDS011;5370;50.132;8.626;2023-09-19T06:32:10;5.35;;;1.85;;
10643;SDS011;5370;50.132;8.626;2023-09-19T06:34:36;6.80;;;2.63;;
10643;SDS011;5370;50.132;8.626;2023-09-19T06:37:03;7.38;;;2.55;;
10643;SDS011;5370;50.132;8.626;2023-09-19T06:39:31;4.18;;;2.28;;
10643;SDS011;5370;50.132;8.626;2023-09-19T06:41:56;3.35;;;2.55;;
10643;SDS011;5370;50.132;8.626;2023-09-19T06:44:23;6.90;;;2.20;;
10643;SDS011;5370;50.132;8.626;2023-09-19T06:46:49;5.22;;;2.17;;
10643;SDS011;5370;50.132;8.626;2023-09-19T06:49:16;3.30;;;2.22;;
10643;SDS011;5370;50.132;8.626;2023-09-19T06:51:42;3.15;;;2.00;;
10643;SDS011;5370;50.132;8.626;2023-09-19T06:54:08;5.65;;;2.42;;
10643;SDS011;5370;50.132;8.626;2023-09-19T06:56:34;4.15;;;2.13;;
10643;SDS011;5370;50.132;8.626;2023-09-19T06:59:00;5.25;;;2.28;;
10643;SDS011;5370;50.132;8.626;2023-09-19T07:01:27;8.40;;;2.55;;
10643;SDS011;5370;50.132;8.626;2023-09-19T07:03:53;3.67;;;2.38;;
10643;SDS011;5370;50.132;8.626;2023-09-19T07:06:19;5.95;;;2.22;;
10643;SDS011;5370;50.132;8.626;2023-09-19T07:08:45;5.65;;;2.40;;
10643;SDS011;5370;50.132;8.626;2023-09-19T07:11:10;11.35;;;2.78;;
10643;SDS011;5370;50.132;8.626;2023-09-19T07:13:37;4.68;;;1.90;;
10643;SDS011;5370;50.132;8.626;2023-09-19T07:16:03;6.82;;;2.20;;
10643;SDS011;5370;50.132;8.626;2023-09-19T07:18:29;5.85;;;2.50;;
10643;SDS011;5370;50.132;8.626;2023-09-19T07:20:56;4.28;;;1.85;;
10643;SDS011;5370;50.132;8.626;2023-09-19T07:23:26;3.58;;;1.83;;
10643;SDS011;5370;50.132;8.626;2023-09-19T07:25:51;4.65;;;1.95;;
10643;SDS011;5370;50.132;8.626;2023-09-19T07:28:17;7.20;;;2.22;;
10643;SDS011;5370;50.132;8.626;2023-09-19T07:30:43;7.40;;;2.20;;
10643;SDS011;5370;50.132;8.626;2023-09-19T07:33:09;6.10;;;1.90;;
10643;SDS011;5370;50.132;8.626;2023-09-19T07:35:37;4.97;;;2.10;;
10643;SDS011;5370;50.132;8.626;2023-09-19T07:38:06;9.02;;;2.20;;
10643;SDS011;5370;50.132;8.626;2023-09-19T07:40:32;5.05;;;2.05;;
10643;SDS011;5370;50.132;8.626;2023-09-19T07:42:58;3.25;;;1.65;;
10643;SDS011;5370;50.132;8.626;2023-09-19T07:45:29;6.75;;;1.65;;
10643;SDS011;5370;50.132;8.626;2023-09-19T07:47:55;4.57;;;1.63;;
10643;SDS011;5370;50.132;8.626;2023-09-19T07:50:20;3.53;;;1.50;;
10643;SDS011;5370;50.132;8.626;2023-09-19T07:52:47;5.18;;;2.15;;
10643;SDS011;5370;50.132;8.626;2023-09-19T07:55:15;6.20;;;1.92;;
10643;SDS011;5370;50.132;8.626;2023-09-19T07:57:42;5.35;;;1.80;;
10643;SDS011;5370;50.132;8.626;2023-09-19T08:00:09;5.90;;;1.80;;
10643;SDS011;5370;50.132;8.626;2023-09-19T08:02:38;5.22;;;1.65;;
10643;SDS011;5370;50.132;8.626;2023-09-19T08:05:05;7.18;;;1.67;;
10643;SDS011;5370;50.132;8.626;2023-09-19T08:07:32;6.70;;;1.65;;
10643;SDS011;5370;50.132;8.626;2023-09-19T08:09:58;8.85;;;2.17;;
10643;SDS011;5370;50.132;8.626;2023-09-19T08:12:24;2.25;;;1.48;;
10643;SDS011;5370;50.132;8.626;2023-09-19T08:14:50;5.70;;;1.90;;
10643;SDS011;5370;50.132;8.626;2023-09-19T08:17:15;4.57;;;1.45;;
10643;SDS011;5370;50.132;8.626;2023-09-19T08:19:41;4.00;;;1.58;;
10643;SDS011;5370;50.132;8.626;2023-09-19T08:22:09;9.93;;;2.05;;
10643;SDS011;5370;50.132;8.626;2023-09-19T08:24:35;5.72;;;1.50;;
10643;SDS011;5370;50.132;8.626;2023-09-19T08:27:01;4.88;;;1.63;;
10643;SDS011;5370;50.132;8.626;2023-09-19T08:29:29;3.13;;;1.63;;
10643;SDS011;5370;50.132;8.626;2023-09-19T08:31:56;5.70;;;1.98;;
10643;SDS011;5370;50.132;8.626;2023-09-19T08:34:25;3.30;;;1.55;;
10643;SDS011;5370;50.132;8.626;2023-09-19T08:36:54;5.95;;;1.98;;
10643;SDS011;5370;50.132;8.626;2023-09-19T08:39:23;5.97;;;1.75;;
10643;SDS011;5370;50.132;8.626;2023-09-19T08:41:49;6.18;;;1.70;;
10643;SDS011;5370;50.132;8.626;2023-09-19T08:44:21;4.85;;;1.95;;
10643;SDS011;5370;50.132;8.626;2023-09-19T08:46:47;4.28;;;1.73;;
10643;SDS011;5370;50.132;8.626;2023-09-19T08:49:24;3.90;;;1.73;;
10643;SDS011;5370;50.132;8.626;2023-09-19T08:52:04;2.90;;;1.40;;
10643;SDS011;5370;50.132;8.626;2023-09-19T08:54:36;3.47;;;1.55;;
10643;SDS011;5370;50.132;8.626;2023-09-19T08:57:05;4.38;;;2.00;;
10643;SDS011;5370;50.132;8.626;2023-09-19T08:59:36;5.32;;;1.80;;
10643;SDS011;5370;50.132;8.626;2023-09-19T09:02:12;3.88;;;1.75;;
10643;SDS011;5370;50.132;8.626;2023-09-19T09:04:40;4.25;;;1.85;;
10643;SDS011;5370;50.132;8.626;2023-09-19T09:07:11;4.57;;;1.92;;
10643;SDS011;5370;50.132;8.626;2023-09-19T09:09:41;4.68;;;1.73;;
10643;SDS011;5370;50.132;8.626;2023-09-19T09:12:12;7.90;;;2.00;;
10643;SDS011;5370;50.132;8.626;2023-09-19T09:14:39;4.50;;;2.00;;
10643;SDS011;5370;50.132;8.626;2023-09-19T09:17:06;6.20;;;1.90;;
10643;SDS011;5370;50.132;8.626;2023-09-19T09:19:32;5.45;;;2.22;;
10643;SDS011;5370;50.132;8.626;2023-09-19T09:22:07;4.13;;;1.83;;
10643;SDS011;5370;50.132;8.626;2023-09-19T09:24:34;7.10;;;2.13;;
10643;SDS011;5370;50.132;8.626;2023-09-19T09:27:02;6.85;;;2.30;;
10643;SDS011;5370;50.132;8.626;2023-09-19T09:29:40;5.50;;;1.52;;
10643;SDS011;5370;50.132;8.626;2023-09-19T09:34:43;6.60;;;1.90;;
10643;SDS011;5370;50.132;8.626;2023-09-19T09:37:16;5.30;;;2.13;;
10643;SDS011;5370;50.132;8.626;2023-09-19T09:39:48;4.93;;;2.10;;
10643;SDS011;5370;50.132;8.626;2023-09-19T09:42:28;8.05;;;2.33;;
10643;SDS011;5370;50.132;8.626;2023-09-19T09:45:17;6.03;;;1.88;;
10643;SDS011;5370;50.132;8.626;2023-09-19T09:47:47;5.18;;;2.00;;
10643;SDS011;5370;50.132;8.626;2023-09-19T09:50:26;4.80;;;1.60;;
10643;SDS011;5370;50.132;8.626;2023-09-19T09:53:23;5.97;;;2.08;;
10643;SDS011;5370;50.132;8.626;2023-09-19T09:58:36;7.88;;;2.40;;
10643;SDS011;5370;50.132;8.626;2023-09-19T10:01:05;6.13;;;3.47;;
10643;SDS011;5370;50.132;8.626;2023-09-19T10:03:35;5.68;;;1.88;;
10643;SDS011;5370;50.132;8.626;2023-09-19T10:06:04;5.30;;;2.03;;
10643;SDS011;5370;50.132;8.626;2023-09-19T10:08:57;8.30;;;2.15;;
10643;SDS011;5370;50.132;8.626;2023-09-19T10:11:30;10.55;;;2.65;;
10643;SDS011;5370;50.132;8.626;2023-09-19T10:13:57;9.40;;;2.50;;
10643;SDS011;5370;50.132;8.626;2023-09-19T10:16:26;6.07;;;1.95;;
10643;SDS011;5370;50.132;8.626;2023-09-19T10:18:57;10.38;;;2.88;;
10643;SDS011;5370;50.132;8.626;2023-09-19T10:21:26;7.55;;;2.50;;
10643;SDS011;5370;50.132;8.626;2023-09-19T10:23:55;6.50;;;2.53;;
10643;SDS011;5370;50.132;8.626;2023-09-19T10:26:25;9.05;;;2.20;;
10643;SDS011;5370;50.132;8.626;2023-09-19T10:28:55;8.43;;;2.28;;
10643;SDS011;5370;50.132;8.626;2023-09-19T10:31:22;7.38;;;2.55;;
10643;SDS011;5370;50.132;8.626;2023-09-19T10:33:50;7.85;;;2.10;;
10643;SDS011;5370;50.132;8.626;2023-09-19T10:36:18;10.13;;;2.55;;
10643;SDS011;5370;50.132;8.626;2023-09-19T10:38:45;7.75;;;2.40;;
10643;SDS011;5370;50.132;8.626;2023-09-19T10:41:12;5.05;;;2.35;;
10643;SDS011;5370;50.132;8.626;2023-09-19T10:43:41;6.10;;;2.20;;
10643;SDS011;5370;50.132;8.626;2023-09-19T10:46:09;5.20;;;2.25;;
10643;SDS011;5370;50.132;8.626;2023-09-19T10:48:38;10.48;;;2.33;;
10643;SDS011;5370;50.132;8.626;2023-09-19T10:51:18;8.40;;;2.60;;
10643;SDS011;5370;50.132;8.626;2023-09-19T10:56:27;5.22;;;2.08;;
10643;SDS011;5370;50.132;8.626;2023-09-19T10:59:05;7.00;;;2.03;;
10643;SDS011;5370;50.132;8.626;2023-09-19T11:01:45;12.48;;;2.72;;
10643;SDS011;5370;50.132;8.626;2023-09-19T11:04:28;5.38;;;2.20;;
10643;SDS011;5370;50.132;8.626;2023-09-19T11:15:11;8.73;;;2.00;;
10643;SDS011;5370;50.132;8.626;2023-09-19T11:26:43;9.23;;;2.35;;
10643;SDS011;5370;50.132;8.626;2023-09-19T11:29:25;6.00;;;2.10;;
10643;SDS011;5370;50.132;8.626;2023-09-19T11:31:57;8.35;;;2.38;;
10643;SDS011;5370;50.132;8.626;2023-09-19T11:37:02;3.75;;;1.73;;
10643;SDS011;5370;50.132;8.626;2023-09-19T11:39:36;6.85;;;2.10;;
10643;SDS011;5370;50.132;8.626;2023-09-19T11:42:07;5.97;;;1.70;;
10643;SDS011;5370;50.132;8.626;2023-09-19T11:45:06;5.22;;;2.10;;
10643;SDS011;5370;50.132;8.626;2023-09-19T11:47:32;6.55;;;1.88;;
10643;SDS011;5370;50.132;8.626;2023-09-19T11:50:00;5.35;;;1.88;;
10643;SDS011;5370;50.132;8.626;2023-09-19T11:52:26;8.88;;;2.38;;
10643;SDS011;5370;50.132;8.626;2023-09-19T11:54:59;9.27;;;2.50;;
10643;SDS011;5370;50.132;8.626;2023-09-19T11:57:26;5.53;;;2.22;;
10643;SDS011;5370;50.132;8.626;2023-09-19T11:59:55;6.75;;;2.30;;
10643;SDS011;5370;50.132;8.626;2023-09-19T12:02:38;3.95;;;1.67;;
10643;SDS011;5370;50.132;8.626;2023-09-19T12:05:07;9.60;;;2.17;;
10643;SDS011;5370;50.132;8.626;2023-09-19T12:07:41;7.88;;;2.00;;
10643;SDS011;5370;50.132;8.626;2023-09-19T12:10:10;6.13;;;2.10;;
10643;SDS011;5370;50.132;8.626;2023-09-19T12:12:45;10.43;;;3.53;;
10643;SDS011;5370;50.132;8.626;2023-09-19T12:15:13;5.35;;;2.30;;
10643;SDS011;5370;50.132;8.626;2023-09-19T12:17:39;5.70;;;1.90;;
10643;SDS011;5370;50.132;8.626;2023-09-19T12:20:07;7.15;;;2.05;;
10643;SDS011;5370;50.132;8.626;2023-09-19T12:22:45;5.13;;;2.38;;
10643;SDS011;5370;50.132;8.626;2023-09-19T12:25:12;5.82;;;2.10;;
10643;SDS011;5370;50.132;8.626;2023-09-19T12:30:11;11.35;;;2.35;;
10643;SDS011;5370;50.132;8.626;2023-09-19T12:32:39;4.95;;;2.00;;
10643;SDS011;5370;50.132;8.626;2023-09-19T12:35:08;6.47;;;2.28;;
10643;SDS011;5370;50.132;8.626;2023-09-19T12:37:36;8.48;;;3.45;;
10643;SDS011;5370;50.132;8.626;2023-09-19T12:40:06;11.10;;;5.28;;
10643;SDS011;5370;50.132;8.626;2023-09-19T12:42:47;25.70;;;17.17;;
10643;SDS011;5370;50.132;8.626;2023-09-19T12:45:14;11.93;;;7.88;;
10643;SDS011;5370;50.132;8.626;2023-09-19T12:53:44;7.30;;;3.08;;
10643;SDS011;5370;50.132;8.626;2023-09-19T12:56:14;5.50;;;2.30;;
10643;SDS011;5370;50.132;8.626;2023-09-19T12:58:53;5.15;;;2.67;;
10643;SDS011;5370;50.132;8.626;2023-09-19T13:01:23;10.68;;;4.72;;
10643;SDS011;5370;50.132;8.626;2023-09-19T13:06:43;5.93;;;2.80;;
10643;SDS011;5370;50.132;8.626;2023-09-19T13:09:12;5.60;;;2.65;;
10643;SDS011;5370;50.132;8.626;2023-09-19T13:11:39;5.75;;;2.67;;
10643;SDS011;5370;50.132;8.626;2023-09-19T13:16:58;4.45;;;2.03;;
10643;SDS011;5370;50.132;8.626;2023-09-19T13:19:43;6.05;;;4.03;;
10643;SDS011;5370;50.132;8.626;2023-09-19T13:25:14;9.10;;;2.00;;
10643;SDS011;5370;50.132;8.626;2023-09-19T13:27:52;5.22;;;3.85;;
10643;SDS011;5370;50.132;8.626;2023-09-19T13:30:21;6.78;;;2.05;;
10643;SDS011;5370;50.132;8.626;2023-09-19T13:32:50;3.88;;;1.58;;
10643;SDS011;5370;50.132;8.626;2023-09-19T13:35:16;4.45;;;1.88;;
10643;SDS011;5370;50.132;8.626;2023-09-19T13:37:42;4.93;;;1.83;;
10643;SDS011;5370;50.132;8.626;2023-09-19T13:40:12;7.85;;;2.92;;
10643;SDS011;5370;50.132;8.626;2023-09-19T13:42:41;8.45;;;1.67;;
10643;SDS011;5370;50.132;8.626;2023-09-19T13:45:07;4.10;;;2.30;;
10643;SDS011;5370;50.132;8.626;2023-09-19T13:47:36;6.00;;;2.88;;
10643;SDS011;5370;50.132;8.626;2023-09-19T13:50:03;4.38;;;1.90;;
10643;SDS011;5370;50.132;8.626;2023-09-19T13:52:29;3.90;;;1.67;;
10643;SDS011;5370;50.132;8.626;2023-09-19T13:54:55;2.80;;;1.90;;
10643;SDS011;5370;50.132;8.626;2023-09-19T13:57:22;5.85;;;1.83;;
10643;SDS011;5370;50.132;8.626;2023-09-19T13:59:51;6.63;;;2.20;;
10643;SDS011;5370;50.132;8.626;2023-09-19T14:02:19;6.22;;;2.10;;
10643;SDS011;5370;50.132;8.626;2023-09-19T14:04:47;5.22;;;1.80;;
10643;SDS011;5370;50.132;8.626;2023-09-19T14:07:18;8.90;;;2.38;;
10643;SDS011;5370;50.132;8.626;2023-09-19T14:09:45;4.95;;;2.00;;
10643;SDS011;5370;50.132;8.626;2023-09-19T14:12:10;4.18;;;2.05;;
10643;SDS011;5370;50.132;8.626;2023-09-19T14:14:36;6.82;;;1.83;;
10643;SDS011;5370;50.132;8.626;2023-09-19T14:17:02;6.05;;;2.05;;
10643;SDS011;5370;50.132;8.626;2023-09-19T14:19:29;3.85;;;1.83;;
10643;SDS011;5370;50.132;8.626;2023-09-19T14:21:55;2.70;;;1.25;;
10643;SDS011;5370;50.132;8.626;2023-09-19T14:24:21;3.78;;;1.77;;
10643;SDS011;5370;50.132;8.626;2023-09-19T14:26:47;9.88;;;1.67;;
10643;SDS011;5370;50.132;8.626;2023-09-19T14:29:14;2.63;;;1.48;;
10643;SDS011;5370;50.132;8.626;2023-09-19T14:31:40;5.00;;;1.67;;
10643;SDS011;5370;50.132;8.626;2023-09-19T14:34:06;4.63;;;1.70;;
10643;SDS011;5370;50.132;8.626;2023-09-19T14:36:34;6.13;;;1.92;;
10643;SDS011;5370;50.132;8.626;2023-09-19T14:39:00;7.18;;;2.00;;
10643;SDS011;5370;50.132;8.626;2023-09-19T14:41:25;11.75;;;1.88;;
10643;SDS011;5370;50.132;8.626;2023-09-19T14:43:51;3.83;;;2.85;;
10643;SDS011;5370;50.132;8.626;2023-09-19T14:46:17;3.42;;;1.60;;
10643;SDS011;5370;50.132;8.626;2023-09-19T14:48:44;3.65;;;1.80;;
10643;SDS011;5370;50.132;8.626;2023-09-19T14:51:12;3.13;;;1.38;;
10643;SDS011;5370;50.132;8.626;2023-09-19T14:53:38;2.53;;;1.52;;
10643;SDS011;5370;50.132;8.626;2023-09-19T14:56:06;4.85;;;2.17;;
10643;SDS011;5370;50.132;8.626;2023-09-19T14:58:33;8.15;;;2.85;;
10643;SDS011;5370;50.132;8.626;2023-09-19T15:01:02;11.25;;;6.15;;
10643;SDS011;5370;50.132;8.626;2023-09-19T15:03:28;3.40;;;2.40;;
10643;SDS011;5370;50.132;8.626;2023-09-19T15:06:02;4.47;;;1.65;;
10643;SDS011;5370;50.132;8.626;2023-09-19T15:08:32;2.80;;;1.50;;
10643;SDS011;5370;50.132;8.626;2023-09-19T15:10:59;7.72;;;4.80;;
10643;SDS011;5370;50.132;8.626;2023-09-19T15:13:30;6.97;;;4.03;;
10643;SDS011;5370;50.132;8.626;2023-09-19T15:16:06;8.38;;;4.40;;
10643;SDS011;5370;50.132;8.626;2023-09-19T15:18:34;13.80;;;10.15;;
10643;SDS011;5370;50.132;8.626;2023-09-19T15:21:05;6.50;;;4.95;;
10643;SDS011;5370;50.132;8.626;2023-09-19T15:23:32;9.52;;;6.00;;
10643;SDS011;5370;50.132;8.626;2023-09-19T15:25:59;3.97;;;2.25;;
10643;SDS011;5370;50.132;8.626;2023-09-19T15:28:29;19.55;;;13.68;;
10643;SDS011;5370;50.132;8.626;2023-09-19T15:31:09;9.77;;;4.80;;
10643;SDS011;5370;50.132;8.626;2023-09-19T15:33:36;3.90;;;1.83;;
10643;SDS011;5370;50.132;8.626;2023-09-19T15:36:02;3.88;;;1.45;;
10643;SDS011;5370;50.132;8.626;2023-09-19T15:41:26;2.40;;;1.40;;
10643;SDS011;5370;50.132;8.626;2023-09-19T15:43:59;5.15;;;1.60;;
10643;SDS011;5370;50.132;8.626;2023-09-19T15:46:30;2.55;;;1.30;;
10643;SDS011;5370;50.132;8.626;2023-09-19T15:48:58;4.68;;;1.65;;
10643;SDS011;5370;50.132;8.626;2023-09-19T15:51:25;1.80;;;1.05;;
10643;SDS011;5370;50.132;8.626;2023-09-19T15:53:52;2.58;;;1.27;;
10643;SDS011;5370;50.132;8.626;2023-09-19T15:56:18;2.38;;;1.35;;
10643;SDS011;5370;50.132;8.626;2023-09-19T15:58:51;3.03;;;1.33;;
10643;SDS011;5370;50.132;8.626;2023-09-19T16:01:18;1.88;;;1.30;;
10643;SDS011;5370;50.132;8.626;2023-09-19T16:03:50;3.33;;;1.25;;
10643;SDS011;5370;50.132;8.626;2023-09-19T16:06:19;3.92;;;1.65;;